sensor_id;sensor_type;location;lat;lon;timestamp;pressure;altitude;pressure_sealevel;temperature;humidity
7660;BME280;3872;47.902;8.162;2022-07-23T00:01:28;92124.00;;;18.73;100.00
7660;BME280;3872;47.902;8.162;2022-07-23T00:03:55;92128.03;;;18.30;100.00
7660;BME280;3872;47.902;8.162;2022-07-23T00:06:24;92124.69;;;18.46;100.00
7660;BME280;3872;47.902;8.162;2022-07-23T00:08:51;92129.69;;;18.35;100.00
7660;BME280;3872;47.902;8.162;2022-07-23T00:11:18;92148.25;;;18.31;100.00
7660;BME280;3872;47.902;8.162;2022-07-23T00:13:45;92142.47;;;18.54;100.00
7660;BME280;3872;47.902;8.162;2022-07-23T00:16:11;92149.88;;;18.72;100.00
7660;BME280;3872;47.902;8.162;2022-07-23T00:18:38;92161.78;;;18.63;100.00
7660;BME280;3872;47.902;8.162;2022-07-23T00:21:05;92162.00;;;18.33;100.00
7660;BME280;3872;47.902;8.162;2022-07-23T00:23:33;92155.56;;;18.34;100.00
7660;BME280;3872;47.902;8.162;2022-07-23T00:25:59;92145.03;;;18.38;100.00
7660;BME280;3872;47.902;8.162;2022-07-23T00:28:26;92155.34;;;18.39;100.00
7660;BME280;3872;47.902;8.162;2022-07-23T00:30:53;92163.66;;;18.50;100.00
7660;BME280;3872;47.902;8.162;2022-07-23T00:33:19;92170.56;;;18.63;100.00
7660;BME280;3872;47.902;8.162;2022-07-23T00:35:46;92183.63;;;18.08;100.00
7660;BME280;3872;47.902;8.162;2022-07-23T00:38:13;92199.94;;;17.94;100.00
7660;BME280;3872;47.902;8.162;2022-07-23T00:40:41;92212.13;;;17.95;100.00
7660;BME280;3872;47.902;8.162;2022-07-23T00:43:08;92204.06;;;18.28;100.00
7660;BME280;3872;47.902;8.162;2022-07-23T00:45:35;92193.75;;;18.38;100.00
7660;BME280;3872;47.902;8.162;2022-07-23T00:48:02;92191.31;;;18.33;100.00
7660;BME280;3872;47.902;8.162;2022-07-23T00:50:29;92168.22;;;18.37;100.00
7660;BME280;3872;47.902;8.162;2022-07-23T00:52:56;92148.91;;;18.28;100.00
7660;BME280;3872;47.902;8.162;2022-07-23T00:55:22;92140.81;;;18.37;100.00
7660;BME280;3872;47.902;8.162;2022-07-23T00:57:51;92135.59;;;18.28;100.00
7660;BME280;3872;47.902;8.162;2022-07-23T01:00:19;92130.59;;;18.15;100.00
7660;BME280;3872;47.902;8.162;2022-07-23T01:02:45;92129.16;;;18.17;100.00
7660;BME280;3872;47.902;8.162;2022-07-23T01:05:12;92124.63;;;18.18;100.00
7660;BME280;3872;47.902;8.162;2022-07-23T01:07:39;92123.16;;;18.32;100.00
7660;BME280;3872;47.902;8.162;2022-07-23T01:10:08;92120.16;;;18.34;100.00
7660;BME280;3872;47.902;8.162;2022-07-23T01:12:48;92121.72;;;18.11;100.00
7660;BME280;3872;47.902;8.162;2022-07-23T01:15:17;92121.16;;;17.81;100.00
7660;BME280;3872;47.902;8.162;2022-07-23T01:17:43;92121.16;;;17.93;100.00
7660;BME280;3872;47.902;8.162;2022-07-23T01:20:10;92131.72;;;18.02;100.00
7660;BME280;3872;47.902;8.162;2022-07-23T01:22:38;92142.00;;;17.79;100.00
7660;BME280;3872;47.902;8.162;2022-07-23T01:25:06;92157.31;;;17.49;100.00
7660;BME280;3872;47.902;8.162;2022-07-23T01:27:34;92108.50;;;17.78;100.00
7660;BME280;3872;47.902;8.162;2022-07-23T01:30:04;92083.31;;;17.63;100.00
7660;BME280;3872;47.902;8.162;2022-07-23T01:32:31;92087.88;;;17.75;100.00
7660;BME280;3872;47.902;8.162;2022-07-23T01:34:57;92094.44;;;17.89;100.00
7660;BME280;3872;47.902;8.162;2022-07-23T01:37:24;92107.16;;;17.84;100.00
7660;BME280;3872;47.902;8.162;2022-07-23T01:39:52;92115.59;;;17.62;100.00
7660;BME280;3872;47.902;8.162;2022-07-23T01:42:19;92118.09;;;17.58;100.00
7660;BME280;3872;47.902;8.162;2022-07-23T01:44:46;92121.09;;;17.56;100.00
7660;BME280;3872;47.902;8.162;2022-07-23T01:47:17;92117.47;;;17.61;100.00
7660;BME280;3872;47.902;8.162;2022-07-23T01:49:45;92110.06;;;17.67;100.00
7660;BME280;3872;47.902;8.162;2022-07-23T01:52:37;92105.50;;;17.67;100.00
7660;BME280;3872;47.902;8.162;2022-07-23T01:55:07;92124.59;;;17.36;100.00
7660;BME280;3872;47.902;8.162;2022-07-23T01:57:35;92126.59;;;17.39;100.00
7660;BME280;3872;47.902;8.162;2022-07-23T02:00:03;92113.09;;;17.56;100.00
7660;BME280;3872;47.902;8.162;2022-07-23T02:02:38;92114.66;;;17.57;100.00
7660;BME280;3872;47.902;8.162;2022-07-23T02:05:05;92118.28;;;17.41;100.00
7660;BME280;3872;47.902;8.162;2022-07-23T02:07:33;92137.94;;;17.15;100.00
7660;BME280;3872;47.902;8.162;2022-07-23T02:10:00;92142.34;;;17.44;100.00
7660;BME280;3872;47.902;8.162;2022-07-23T02:12:28;92166.06;;;17.49;100.00
7660;BME280;3872;47.902;8.162;2022-07-23T02:14:54;92154.66;;;17.49;100.00
7660;BME280;3872;47.902;8.162;2022-07-23T02:17:24;92139.56;;;17.41;100.00
7660;BME280;3872;47.902;8.162;2022-07-23T02:19:50;92113.63;;;17.38;100.00
7660;BME280;3872;47.902;8.162;2022-07-23T02:22:17;92109.31;;;17.33;100.00
7660;BME280;3872;47.902;8.162;2022-07-23T02:24:43;92112.69;;;17.54;100.00
7660;BME280;3872;47.902;8.162;2022-07-23T02:27:10;92130.16;;;17.55;100.00
7660;BME280;3872;47.902;8.162;2022-07-23T02:29:38;92134.00;;;17.67;100.00
7660;BME280;3872;47.902;8.162;2022-07-23T02:32:05;92122.25;;;17.68;100.00
7660;BME280;3872;47.902;8.162;2022-07-23T02:34:31;92137.97;;;17.60;100.00
7660;BME280;3872;47.902;8.162;2022-07-23T02:36:58;92135.38;;;17.52;100.00
7660;BME280;3872;47.902;8.162;2022-07-23T02:39:27;92123.81;;;17.36;100.00
7660;BME280;3872;47.902;8.162;2022-07-23T02:41:53;92115.06;;;17.35;100.00
7660;BME280;3872;47.902;8.162;2022-07-23T02:44:20;92109.16;;;17.30;100.00
7660;BME280;3872;47.902;8.162;2022-07-23T02:46:52;92117.97;;;17.09;100.00
7660;BME280;3872;47.902;8.162;2022-07-23T02:49:18;92136.16;;;17.19;100.00
7660;BME280;3872;47.902;8.162;2022-07-23T02:51:47;92149.56;;;17.44;100.00
7660;BME280;3872;47.902;8.162;2022-07-23T02:54:15;92149.16;;;17.54;100.00
7660;BME280;3872;47.902;8.162;2022-07-23T02:56:41;92144.59;;;17.54;100.00
7660;BME280;3872;47.902;8.162;2022-07-23T02:59:08;92150.50;;;17.60;100.00
7660;BME280;3872;47.902;8.162;2022-07-23T03:01:35;92133.59;;;17.44;100.00
7660;BME280;3872;47.902;8.162;2022-07-23T03:04:03;92122.59;;;17.33;100.00
7660;BME280;3872;47.902;8.162;2022-07-23T03:06:30;92136.38;;;17.14;100.00
7660;BME280;3872;47.902;8.162;2022-07-23T03:08:56;92104.63;;;17.30;100.00
7660;BME280;3872;47.902;8.162;2022-07-23T03:11:23;92099.84;;;17.23;100.00
7660;BME280;3872;47.902;8.162;2022-07-23T03:13:49;92106.72;;;17.25;100.00
7660;BME280;3872;47.902;8.162;2022-07-23T03:16:16;92115.06;;;17.35;100.00
7660;BME280;3872;47.902;8.162;2022-07-23T03:18:42;92137.66;;;17.29;100.00
7660;BME280;3872;47.902;8.162;2022-07-23T03:21:10;92156.19;;;17.38;100.00
7660;BME280;3872;47.902;8.162;2022-07-23T03:23:37;92157.22;;;17.45;100.00
7660;BME280;3872;47.902;8.162;2022-07-23T03:26:04;92187.28;;;17.58;100.00
7660;BME280;3872;47.902;8.162;2022-07-23T03:28:30;92220.16;;;17.20;100.00
7660;BME280;3872;47.902;8.162;2022-07-23T03:30:57;92206.28;;;17.15;100.00
7660;BME280;3872;47.902;8.162;2022-07-23T03:33:24;92199.41;;;16.93;100.00
7660;BME280;3872;47.902;8.162;2022-07-23T03:35:52;92189.78;;;16.89;100.00
7660;BME280;3872;47.902;8.162;2022-07-23T03:38:26;92195.09;;;16.89;100.00
7660;BME280;3872;47.902;8.162;2022-07-23T03:40:53;92195.09;;;17.09;100.00
7660;BME280;3872;47.902;8.162;2022-07-23T03:43:20;92189.72;;;16.97;100.00
7660;BME280;3872;47.902;8.162;2022-07-23T03:45:46;92179.59;;;16.91;100.00
7660;BME280;3872;47.902;8.162;2022-07-23T03:48:13;92176.41;;;16.97;100.00
7660;BME280;3872;47.902;8.162;2022-07-23T03:50:44;92188.78;;;16.93;100.00
7660;BME280;3872;47.902;8.162;2022-07-23T03:53:10;92201.34;;;16.84;100.00
7660;BME280;3872;47.902;8.162;2022-07-23T03:55:38;92213.75;;;16.51;100.00
7660;BME280;3872;47.902;8.162;2022-07-23T03:58:05;92211.66;;;16.65;100.00
7660;BME280;3872;47.902;8.162;2022-07-23T04:00:31;92208.63;;;16.75;100.00
7660;BME280;3872;47.902;8.162;2022-07-23T04:02:59;92199.22;;;16.77;100.00
7660;BME280;3872;47.902;8.162;2022-07-23T04:05:26;92191.44;;;16.72;100.00
7660;BME280;3872;47.902;8.162;2022-07-23T04:08:01;92191.19;;;16.65;100.00
7660;BME280;3872;47.902;8.162;2022-07-23T04:10:28;92175.81;;;16.71;100.00
7660;BME280;3872;47.902;8.162;2022-07-23T04:12:56;92172.63;;;16.77;100.00
7660;BME280;3872;47.902;8.162;2022-07-23T04:15:23;92170.50;;;16.71;100.00
7660;BME280;3872;47.902;8.162;2022-07-23T04:17:49;92161.94;;;16.65;100.00
7660;BME280;3872;47.902;8.162;2022-07-23T04:20:18;92165.59;;;16.61;100.00
7660;BME280;3872;47.902;8.162;2022-07-23T04:22:52;92173.31;;;16.74;100.00
7660;BME280;3872;47.902;8.162;2022-07-23T04:25:19;92159.44;;;16.69;100.00
7660;BME280;3872;47.902;8.162;2022-07-23T04:27:46;92166.75;;;16.72;100.00
7660;BME280;3872;47.902;8.162;2022-07-23T04:30:13;92174.47;;;16.86;100.00
7660;BME280;3872;47.902;8.162;2022-07-23T04:32:40;92168.72;;;16.83;100.00
7660;BME280;3872;47.902;8.162;2022-07-23T04:35:14;92179.34;;;16.83;100.00
7660;BME280;3872;47.902;8.162;2022-07-23T04:37:41;92184.91;;;16.91;100.00
7660;BME280;3872;47.902;8.162;2022-07-23T04:40:09;92184.13;;;16.69;100.00
7660;BME280;3872;47.902;8.162;2022-07-23T04:42:36;92162.09;;;16.69;100.00
7660;BME280;3872;47.902;8.162;2022-07-23T04:45:03;92167.25;;;16.86;100.00
7660;BME280;3872;47.902;8.162;2022-07-23T04:47:31;92165.13;;;16.79;100.00
7660;BME280;3872;47.902;8.162;2022-07-23T04:49:58;92170.91;;;16.81;100.00
7660;BME280;3872;47.902;8.162;2022-07-23T04:52:25;92171.59;;;16.70;100.00
7660;BME280;3872;47.902;8.162;2022-07-23T04:54:51;92161.63;;;16.67;100.00
7660;BME280;3872;47.902;8.162;2022-07-23T04:57:18;92155.25;;;16.59;100.00
7660;BME280;3872;47.902;8.162;2022-07-23T04:59:44;92167.94;;;16.62;100.00
7660;BME280;3872;47.902;8.162;2022-07-23T05:02:12;92171.09;;;16.76;100.00
7660;BME280;3872;47.902;8.162;2022-07-23T05:04:40;92168.97;;;16.91;100.00
7660;BME280;3872;47.902;8.162;2022-07-23T05:07:07;92177.13;;;16.56;100.00
7660;BME280;3872;47.902;8.162;2022-07-23T05:09:34;92169.13;;;16.35;100.00
7660;BME280;3872;47.902;8.162;2022-07-23T05:12:01;92178.16;;;16.72;100.00
7660;BME280;3872;47.902;8.162;2022-07-23T05:14:29;92189.31;;;17.07;100.00
7660;BME280;3872;47.902;8.162;2022-07-23T05:16:55;92192.00;;;17.19;100.00
7660;BME280;3872;47.902;8.162;2022-07-23T05:19:22;92177.16;;;17.39;100.00
7660;BME280;3872;47.902;8.162;2022-07-23T05:21:51;92180.44;;;17.36;100.00
7660;BME280;3872;47.902;8.162;2022-07-23T05:24:17;92173.25;;;17.37;100.00
7660;BME280;3872;47.902;8.162;2022-07-23T05:26:44;92181.44;;;17.65;100.00
7660;BME280;3872;47.902;8.162;2022-07-23T05:29:11;92177.53;;;17.83;100.00
7660;BME280;3872;47.902;8.162;2022-07-23T05:31:37;92183.72;;;17.99;100.00
7660;BME280;3872;47.902;8.162;2022-07-23T05:34:05;92189.84;;;18.12;100.00
7660;BME280;3872;47.902;8.162;2022-07-23T05:36:32;92195.84;;;18.21;100.00
7660;BME280;3872;47.902;8.162;2022-07-23T05:39:02;92179.44;;;18.19;100.00
7660;BME280;3872;47.902;8.162;2022-07-23T05:41:31;92170.22;;;18.04;100.00
7660;BME280;3872;47.902;8.162;2022-07-23T05:43:58;92175.56;;;18.16;100.00
7660;BME280;3872;47.902;8.162;2022-07-23T05:46:25;92188.59;;;17.85;100.00
7660;BME280;3872;47.902;8.162;2022-07-23T05:48:56;92181.75;;;18.20;100.00
7660;BME280;3872;47.902;8.162;2022-07-23T05:51:48;92162.78;;;18.34;100.00
7660;BME280;3872;47.902;8.162;2022-07-23T05:54:22;92163.00;;;18.53;100.00
7660;BME280;3872;47.902;8.162;2022-07-23T05:56:48;92168.47;;;18.32;100.00
7660;BME280;3872;47.902;8.162;2022-07-23T05:59:15;92174.13;;;18.67;100.00
7660;BME280;3872;47.902;8.162;2022-07-23T06:01:42;92173.66;;;18.65;100.00
7660;BME280;3872;47.902;8.162;2022-07-23T06:04:10;92180.00;;;18.73;100.00
7660;BME280;3872;47.902;8.162;2022-07-23T06:06:41;92176.78;;;19.07;100.00
7660;BME280;3872;47.902;8.162;2022-07-23T06:09:10;92188.06;;;19.29;100.00
7660;BME280;3872;47.902;8.162;2022-07-23T06:11:41;92184.97;;;19.54;100.00
7660;BME280;3872;47.902;8.162;2022-07-23T06:14:07;92196.53;;;19.31;100.00
7660;BME280;3872;47.902;8.162;2022-07-23T06:16:45;92188.13;;;19.44;100.00
7660;BME280;3872;47.902;8.162;2022-07-23T06:19:12;92185.25;;;19.37;100.00
7660;BME280;3872;47.902;8.162;2022-07-23T06:21:38;92188.34;;;19.51;100.00
7660;BME280;3872;47.902;8.162;2022-07-23T06:24:05;92201.00;;;19.54;100.00
7660;BME280;3872;47.902;8.162;2022-07-23T06:26:32;92203.03;;;19.45;100.00
7660;BME280;3872;47.902;8.162;2022-07-23T06:29:01;92208.06;;;19.35;100.00
7660;BME280;3872;47.902;8.162;2022-07-23T06:31:27;92204.38;;;19.39;100.00
7660;BME280;3872;47.902;8.162;2022-07-23T06:33:54;92201.94;;;19.46;100.00
7660;BME280;3872;47.902;8.162;2022-07-23T06:36:20;92191.47;;;19.41;100.00
7660;BME280;3872;47.902;8.162;2022-07-23T06:38:47;92191.47;;;19.41;100.00
7660;BME280;3872;47.902;8.162;2022-07-23T06:41:15;92191.78;;;19.52;100.00
7660;BME280;3872;47.902;8.162;2022-07-23T06:43:41;92190.31;;;19.54;100.00
7660;BME280;3872;47.902;8.162;2022-07-23T06:46:09;92185.81;;;19.71;100.00
7660;BME280;3872;47.902;8.162;2022-07-23T06:48:36;92189.25;;;19.71;100.00
7660;BME280;3872;47.902;8.162;2022-07-23T06:51:03;92181.59;;;19.85;100.00
7660;BME280;3872;47.902;8.162;2022-07-23T06:53:30;92187.22;;;19.80;100.00
7660;BME280;3872;47.902;8.162;2022-07-23T06:55:57;92183.16;;;19.86;100.00
7660;BME280;3872;47.902;8.162;2022-07-23T06:58:23;92183.09;;;19.99;100.00
7660;BME280;3872;47.902;8.162;2022-07-23T07:00:50;92188.34;;;19.95;100.00
7660;BME280;3872;47.902;8.162;2022-07-23T07:03:18;92187.69;;;20.45;100.00
7660;BME280;3872;47.902;8.162;2022-07-23T07:05:45;92199.00;;;20.89;100.00
7660;BME280;3872;47.902;8.162;2022-07-23T07:08:11;92189.53;;;21.11;100.00
7660;BME280;3872;47.902;8.162;2022-07-23T07:10:38;92188.59;;;21.19;100.00
7660;BME280;3872;47.902;8.162;2022-07-23T07:13:05;92183.88;;;20.97;100.00
7660;BME280;3872;47.902;8.162;2022-07-23T07:15:31;92190.53;;;21.03;100.00
7660;BME280;3872;47.902;8.162;2022-07-23T07:17:58;92196.94;;;21.18;100.00
7660;BME280;3872;47.902;8.162;2022-07-23T07:20:25;92194.44;;;21.63;100.00
7660;BME280;3872;47.902;8.162;2022-07-23T07:22:52;92187.09;;;21.99;100.00
7660;BME280;3872;47.902;8.162;2022-07-23T07:25:19;92198.28;;;22.04;100.00
7660;BME280;3872;47.902;8.162;2022-07-23T07:27:45;92200.00;;;22.39;100.00
7660;BME280;3872;47.902;8.162;2022-07-23T07:30:12;92201.19;;;22.38;100.00
7660;BME280;3872;47.902;8.162;2022-07-23T07:32:39;92212.13;;;21.87;100.00
7660;BME280;3872;47.902;8.162;2022-07-23T07:35:07;92210.09;;;21.80;100.00
7660;BME280;3872;47.902;8.162;2022-07-23T07:37:35;92213.81;;;21.57;100.00
7660;BME280;3872;47.902;8.162;2022-07-23T07:40:02;92222.97;;;21.36;100.00
7660;BME280;3872;47.902;8.162;2022-07-23T07:42:29;92224.69;;;21.64;100.00
7660;BME280;3872;47.902;8.162;2022-07-23T07:44:57;92230.88;;;21.68;100.00
7660;BME280;3872;47.902;8.162;2022-07-23T07:47:24;92234.75;;;21.70;100.00
7660;BME280;3872;47.902;8.162;2022-07-23T07:49:50;92225.75;;;21.59;100.00
7660;BME280;3872;47.902;8.162;2022-07-23T07:52:17;92220.88;;;21.45;100.00
7660;BME280;3872;47.902;8.162;2022-07-23T07:54:45;92219.81;;;21.69;100.00
7660;BME280;3872;47.902;8.162;2022-07-23T07:57:12;92213.31;;;21.70;100.00
7660;BME280;3872;47.902;8.162;2022-07-23T07:59:38;92219.81;;;21.69;100.00
7660;BME280;3872;47.902;8.162;2022-07-23T08:02:05;92219.78;;;21.88;100.00
7660;BME280;3872;47.902;8.162;2022-07-23T08:04:31;92217.63;;;21.94;100.00
7660;BME280;3872;47.902;8.162;2022-07-23T08:06:58;92224.03;;;21.70;100.00
7660;BME280;3872;47.902;8.162;2022-07-23T08:09:24;92223.97;;;21.86;100.00
7660;BME280;3872;47.902;8.162;2022-07-23T08:11:52;92232.16;;;21.74;100.00
7660;BME280;3872;47.902;8.162;2022-07-23T08:14:19;92226.50;;;21.98;100.00
7660;BME280;3872;47.902;8.162;2022-07-23T08:16:45;92228.63;;;22.08;100.00
7660;BME280;3872;47.902;8.162;2022-07-23T08:19:12;92235.09;;;22.07;100.00
7660;BME280;3872;47.902;8.162;2022-07-23T08:21:38;92238.53;;;21.88;100.00
7660;BME280;3872;47.902;8.162;2022-07-23T08:24:06;92243.44;;;22.02;100.00
7660;BME280;3872;47.902;8.162;2022-07-23T08:26:34;92247.28;;;21.85;100.00
7660;BME280;3872;47.902;8.162;2022-07-23T08:29:02;92243.19;;;21.92;100.00
7660;BME280;3872;47.902;8.162;2022-07-23T08:31:28;92244.00;;;21.73;100.00
7660;BME280;3872;47.902;8.162;2022-07-23T08:33:55;92253.63;;;21.77;100.00
7660;BME280;3872;47.902;8.162;2022-07-23T08:36:22;92241.50;;;21.83;100.00
7660;BME280;3872;47.902;8.162;2022-07-23T08:38:48;92242.97;;;22.19;100.00
7660;BME280;3872;47.902;8.162;2022-07-23T08:41:16;92238.63;;;21.92;100.00
7660;BME280;3872;47.902;8.162;2022-07-23T08:43:42;92236.66;;;22.08;100.00
7660;BME280;3872;47.902;8.162;2022-07-23T08:46:13;92240.19;;;22.35;100.00
7660;BME280;3872;47.902;8.162;2022-07-23T08:48:39;92227.59;;;22.62;100.00
7660;BME280;3872;47.902;8.162;2022-07-23T08:51:06;92240.06;;;22.74;100.00
7660;BME280;3872;47.902;8.162;2022-07-23T08:53:33;92239.69;;;22.52;100.00
7660;BME280;3872;47.902;8.162;2022-07-23T08:56:03;92232.41;;;23.25;100.00
7660;BME280;3872;47.902;8.162;2022-07-23T08:58:30;92244.97;;;22.22;100.00
7660;BME280;3872;47.902;8.162;2022-07-23T09:00:57;92236.44;;;23.12;100.00
7660;BME280;3872;47.902;8.162;2022-07-23T09:03:27;92240.25;;;22.84;100.00
7660;BME280;3872;47.902;8.162;2022-07-23T09:05:56;92237.56;;;22.61;100.00
7660;BME280;3872;47.902;8.162;2022-07-23T09:08:24;92242.38;;;21.87;100.00
7660;BME280;3872;47.902;8.162;2022-07-23T09:10:53;92245.47;;;22.09;100.00
7660;BME280;3872;47.902;8.162;2022-07-23T09:13:32;92238.09;;;22.93;100.00
7660;BME280;3872;47.902;8.162;2022-07-23T09:16:01;92243.00;;;23.14;100.00
7660;BME280;3872;47.902;8.162;2022-07-23T09:18:31;92235.53;;;23.30;100.00
7660;BME280;3872;47.902;8.162;2022-07-23T09:21:19;92238.19;;;23.27;100.00
7660;BME280;3872;47.902;8.162;2022-07-23T09:23:49;92233.94;;;23.52;100.00
7660;BME280;3872;47.902;8.162;2022-07-23T09:26:22;92233.81;;;23.71;100.00
7660;BME280;3872;47.902;8.162;2022-07-23T09:28:55;92234.25;;;24.10;100.00
7660;BME280;3872;47.902;8.162;2022-07-23T09:31:22;92227.69;;;24.08;100.00
7660;BME280;3872;47.902;8.162;2022-07-23T09:33:51;92228.81;;;24.84;100.00
7660;BME280;3872;47.902;8.162;2022-07-23T09:36:27;92222.81;;;25.05;100.00
7660;BME280;3872;47.902;8.162;2022-07-23T09:38:54;92222.78;;;25.02;100.00
7660;BME280;3872;47.902;8.162;2022-07-23T09:41:21;92241.03;;;23.37;100.00
7660;BME280;3872;47.902;8.162;2022-07-23T09:43:55;92246.56;;;23.78;100.00
7660;BME280;3872;47.902;8.162;2022-07-23T09:46:23;92237.69;;;24.07;100.00
7660;BME280;3872;47.902;8.162;2022-07-23T09:48:52;92230.44;;;24.92;100.00
7660;BME280;3872;47.902;8.162;2022-07-23T09:51:21;92225.59;;;25.88;100.00
7660;BME280;3872;47.902;8.162;2022-07-23T09:53:52;92231.44;;;24.33;100.00
7660;BME280;3872;47.902;8.162;2022-07-23T09:56:20;92226.59;;;23.79;100.00
7660;BME280;3872;47.902;8.162;2022-07-23T09:58:49;92225.41;;;24.91;100.00
7660;BME280;3872;47.902;8.162;2022-07-23T10:01:16;92235.56;;;24.24;100.00
7660;BME280;3872;47.902;8.162;2022-07-23T10:03:43;92230.56;;;24.63;100.00
7660;BME280;3872;47.902;8.162;2022-07-23T10:06:39;92227.66;;;25.44;100.00
7660;BME280;3872;47.902;8.162;2022-07-23T10:09:26;92237.47;;;25.11;100.00
7660;BME280;3872;47.902;8.162;2022-07-23T10:12:16;92238.22;;;25.08;100.00
7660;BME280;3872;47.902;8.162;2022-07-23T10:14:59;92246.69;;;24.22;100.00
7660;BME280;3872;47.902;8.162;2022-07-23T10:17:28;92244.78;;;25.07;100.00
7660;BME280;3872;47.902;8.162;2022-07-23T10:19:55;92240.31;;;25.32;100.00
7660;BME280;3872;47.902;8.162;2022-07-23T10:22:25;92257.09;;;24.64;100.00
7660;BME280;3872;47.902;8.162;2022-07-23T10:24:59;92254.59;;;24.85;100.00
7660;BME280;3872;47.902;8.162;2022-07-23T10:27:58;92257.25;;;25.33;100.00
7660;BME280;3872;47.902;8.162;2022-07-23T10:30:36;92252.47;;;25.63;100.00
7660;BME280;3872;47.902;8.162;2022-07-23T10:33:23;92257.91;;;25.16;100.00
7660;BME280;3872;47.902;8.162;2022-07-23T10:36:01;92257.88;;;25.70;100.00
7660;BME280;3872;47.902;8.162;2022-07-23T10:38:35;92264.03;;;25.67;100.00
7660;BME280;3872;47.902;8.162;2022-07-23T10:41:04;92258.50;;;26.29;100.00
7660;BME280;3872;47.902;8.162;2022-07-23T10:43:31;92260.56;;;25.70;100.00
7660;BME280;3872;47.902;8.162;2022-07-23T10:46:22;92266.34;;;25.11;100.00
7660;BME280;3872;47.902;8.162;2022-07-23T10:49:26;92269.09;;;24.33;100.00
7660;BME280;3872;47.902;8.162;2022-07-23T10:52:15;92265.84;;;24.98;100.00
7660;BME280;3872;47.902;8.162;2022-07-23T10:54:45;92269.28;;;24.54;100.00
7660;BME280;3872;47.902;8.162;2022-07-23T10:57:13;92277.22;;;24.40;100.00
7660;BME280;3872;47.902;8.162;2022-07-23T11:00:15;92280.97;;;23.99;100.00
7660;BME280;3872;47.902;8.162;2022-07-23T11:02:44;92270.06;;;24.55;100.00
7660;BME280;3872;47.902;8.162;2022-07-23T11:05:13;92265.69;;;25.28;100.00
7660;BME280;3872;47.902;8.162;2022-07-23T11:08:13;92270.31;;;25.27;100.00
7660;BME280;3872;47.902;8.162;2022-07-23T11:10:44;92279.97;;;25.35;100.00
7660;BME280;3872;47.902;8.162;2022-07-23T11:13:35;92275.75;;;24.13;100.00
7660;BME280;3872;47.902;8.162;2022-07-23T11:16:17;92277.91;;;25.15;100.00
7660;BME280;3872;47.902;8.162;2022-07-23T11:19:06;92270.06;;;25.54;100.00
7660;BME280;3872;47.902;8.162;2022-07-23T11:21:57;92286.16;;;25.40;100.00
7660;BME280;3872;47.902;8.162;2022-07-23T11:24:24;92278.59;;;25.59;100.00
7660;BME280;3872;47.902;8.162;2022-07-23T11:27:02;92272.59;;;25.94;100.00
7660;BME280;3872;47.902;8.162;2022-07-23T11:29:45;92274.47;;;24.74;100.00
7660;BME280;3872;47.902;8.162;2022-07-23T11:32:23;92279.34;;;25.02;100.00
7660;BME280;3872;47.902;8.162;2022-07-23T11:34:51;92284.22;;;26.09;100.00
7660;BME280;3872;47.902;8.162;2022-07-23T11:37:32;92268.03;;;26.09;100.00
7660;BME280;3872;47.902;8.162;2022-07-23T11:39:58;92274.09;;;25.81;100.00
7660;BME280;3872;47.902;8.162;2022-07-23T11:42:26;92262.31;;;26.21;100.00
7660;BME280;3872;47.902;8.162;2022-07-23T11:44:53;92277.59;;;24.79;100.00
7660;BME280;3872;47.902;8.162;2022-07-23T11:47:24;92265.72;;;26.04;100.00
7660;BME280;3872;47.902;8.162;2022-07-23T11:49:52;92275.03;;;26.21;100.00
7660;BME280;3872;47.902;8.162;2022-07-23T11:52:19;92268.59;;;25.60;100.00
7660;BME280;3872;47.902;8.162;2022-07-23T11:54:48;92265.34;;;26.05;100.00
7660;BME280;3872;47.902;8.162;2022-07-23T11:57:15;92272.84;;;26.79;99.18
7660;BME280;3872;47.902;8.162;2022-07-23T11:59:44;92276.63;;;26.32;100.00
7660;BME280;3872;47.902;8.162;2022-07-23T12:02:12;92265.91;;;26.75;100.00
7660;BME280;3872;47.902;8.162;2022-07-23T12:04:40;92269.22;;;28.24;79.39
7660;BME280;3872;47.902;8.162;2022-07-23T12:07:23;92273.91;;;26.25;78.46
7660;BME280;3872;47.902;8.162;2022-07-23T12:09:50;92267.97;;;25.88;82.19
7660;BME280;3872;47.902;8.162;2022-07-23T12:12:16;92269.34;;;26.40;83.43
7660;BME280;3872;47.902;8.162;2022-07-23T12:14:52;92269.56;;;25.99;77.06
7660;BME280;3872;47.902;8.162;2022-07-23T12:17:28;92270.94;;;26.87;73.84
7660;BME280;3872;47.902;8.162;2022-07-23T12:19:56;92265.94;;;26.89;71.21
7660;BME280;3872;47.902;8.162;2022-07-23T12:22:24;92271.28;;;26.43;73.59
7660;BME280;3872;47.902;8.162;2022-07-23T12:24:56;92274.97;;;26.03;73.79
7660;BME280;3872;47.902;8.162;2022-07-23T12:27:24;92267.84;;;26.88;71.05
7660;BME280;3872;47.902;8.162;2022-07-23T12:29:53;92262.06;;;27.64;68.96
7660;BME280;3872;47.902;8.162;2022-07-23T12:32:21;92274.03;;;27.46;69.41
7660;BME280;3872;47.902;8.162;2022-07-23T12:34:50;92259.44;;;28.44;63.24
7660;BME280;3872;47.902;8.162;2022-07-23T12:37:31;92271.97;;;28.10;63.30
7660;BME280;3872;47.902;8.162;2022-07-23T12:39:58;92265.38;;;28.18;61.24
7660;BME280;3872;47.902;8.162;2022-07-23T12:42:24;92274.63;;;26.11;69.18
7660;BME280;3872;47.902;8.162;2022-07-23T12:45:10;92279.38;;;26.54;65.69
7660;BME280;3872;47.902;8.162;2022-07-23T12:47:57;92277.38;;;25.53;71.54
7660;BME280;3872;47.902;8.162;2022-07-23T12:50:35;92269.63;;;26.13;67.76
7660;BME280;3872;47.902;8.162;2022-07-23T12:53:08;92272.09;;;26.79;66.79
7660;BME280;3872;47.902;8.162;2022-07-23T12:55:36;92267.84;;;26.81;64.11
7660;BME280;3872;47.902;8.162;2022-07-23T12:58:12;92265.47;;;28.73;59.32
7660;BME280;3872;47.902;8.162;2022-07-23T13:01:00;92267.84;;;28.68;56.79
7660;BME280;3872;47.902;8.162;2022-07-23T13:03:30;92254.81;;;29.52;54.88
7660;BME280;3872;47.902;8.162;2022-07-23T13:05:58;92255.00;;;30.70;51.08
7660;BME280;3872;47.902;8.162;2022-07-23T13:08:27;92260.81;;;30.99;48.73
7660;BME280;3872;47.902;8.162;2022-07-23T13:10:54;92269.88;;;29.56;52.06
7660;BME280;3872;47.902;8.162;2022-07-23T13:13:22;92258.00;;;30.18;48.87
7660;BME280;3872;47.902;8.162;2022-07-23T13:15:49;92256.75;;;31.61;46.18
7660;BME280;3872;47.902;8.162;2022-07-23T13:18:17;92262.88;;;29.59;48.99
7660;BME280;3872;47.902;8.162;2022-07-23T13:20:45;92257.19;;;28.29;51.99
7660;BME280;3872;47.902;8.162;2022-07-23T13:23:11;92254.06;;;29.51;49.59
7660;BME280;3872;47.902;8.162;2022-07-23T13:25:38;92260.16;;;27.26;56.90